sensor_id;sensor_type;location;lat;lon;timestamp;P1;durP1;ratioP1;P2;durP2;ratioP2
23402;SDS011;11874;48.228;11.684;2023-12-14T00:00:01;1.42;;;0.57;;
23402;SDS011;11874;48.228;11.684;2023-12-14T00:02:29;1.58;;;0.65;;
23402;SDS011;11874;48.228;11.684;2023-12-14T00:04:59;0.90;;;0.57;;
23402;SDS011;11874;48.228;11.684;2023-12-14T00:07:29;0.70;;;0.70;;
23402;SDS011;11874;48.228;11.684;2023-12-14T00:09:57;1.60;;;0.80;;
23402;SDS011;11874;48.228;11.684;2023-12-14T00:12:26;0.80;;;0.70;;
23402;SDS011;11874;48.228;11.684;2023-12-14T00:14:55;1.85;;;0.77;;
23402;SDS011;11874;48.228;11.684;2023-12-14T00:17:23;0.55;;;0.55;;
23402;SDS011;11874;48.228;11.684;2023-12-14T00:19:51;1.35;;;0.80;;
23402;SDS011;11874;48.228;11.684;2023-12-14T00:22:21;0.65;;;0.65;;
23402;SDS011;11874;48.228;11.684;2023-12-14T00:24:49;1.38;;;1.08;;
23402;SDS011;11874;48.228;11.684;2023-12-14T00:27:17;1.02;;;0.80;;
23402;SDS011;11874;48.228;11.684;2023-12-14T00:29:45;1.35;;;0.75;;
23402;SDS011;11874;48.228;11.684;2023-12-14T00:32:13;0.90;;;0.85;;
23402;SDS011;11874;48.228;11.684;2023-12-14T00:34:41;0.98;;;0.80;;
23402;SDS011;11874;48.228;11.684;2023-12-14T00:37:09;1.63;;;0.70;;
23402;SDS011;11874;48.228;11.684;2023-12-14T00:39:39;1.67;;;1.00;;
23402;SDS011;11874;48.228;11.684;2023-12-14T00:42:07;1.58;;;1.17;;
23402;SDS011;11874;48.228;11.684;2023-12-14T00:44:35;1.77;;;0.93;;
23402;SDS011;11874;48.228;11.684;2023-12-14T00:47:03;1.13;;;1.00;;
23402;SDS011;11874;48.228;11.684;2023-12-14T00:49:31;1.10;;;1.00;;
23402;SDS011;11874;48.228;11.684;2023-12-14T00:51:59;0.90;;;0.80;;
23402;SDS011;11874;48.228;11.684;2023-12-14T00:54:28;1.00;;;0.88;;
23402;SDS011;11874;48.228;11.684;2023-12-14T00:56:58;1.27;;;1.17;;
23402;SDS011;11874;48.228;11.684;2023-12-14T00:59:25;0.90;;;0.90;;
23402;SDS011;11874;48.228;11.684;2023-12-14T01:01:54;1.20;;;1.00;;
23402;SDS011;11874;48.228;11.684;2023-12-14T01:04:22;1.65;;;0.93;;
23402;SDS011;11874;48.228;11.684;2023-12-14T01:06:50;5.50;;;0.95;;
23402;SDS011;11874;48.228;11.684;2023-12-14T01:09:18;3.55;;;1.10;;
23402;SDS011;11874;48.228;11.684;2023-12-14T01:11:47;1.33;;;0.95;;
23402;SDS011;11874;48.228;11.684;2023-12-14T01:14:17;0.95;;;0.82;;
23402;SDS011;11874;48.228;11.684;2023-12-14T01:16:45;1.20;;;1.08;;
23402;SDS011;11874;48.228;11.684;2023-12-14T01:19:13;1.30;;;1.17;;
23402;SDS011;11874;48.228;11.684;2023-12-14T01:21:41;1.27;;;1.17;;
23402;SDS011;11874;48.228;11.684;2023-12-14T01:24:09;1.60;;;1.05;;
23402;SDS011;11874;48.228;11.684;2023-12-14T01:26:38;1.70;;;1.23;;
23402;SDS011;11874;48.228;11.684;2023-12-14T01:29:07;1.60;;;1.27;;
23402;SDS011;11874;48.228;11.684;2023-12-14T01:31:37;1.20;;;1.10;;
23402;SDS011;11874;48.228;11.684;2023-12-14T01:34:05;1.25;;;1.15;;
23402;SDS011;11874;48.228;11.684;2023-12-14T01:36:35;1.00;;;1.00;;
23402;SDS011;11874;48.228;11.684;2023-12-14T01:39:02;1.75;;;1.10;;
23402;SDS011;11874;48.228;11.684;2023-12-14T01:41:31;2.72;;;1.25;;
23402;SDS011;11874;48.228;11.684;2023-12-14T01:43:59;1.58;;;1.23;;
23402;SDS011;11874;48.228;11.684;2023-12-14T01:46:27;1.65;;;1.20;;
23402;SDS011;11874;48.228;11.684;2023-12-14T01:48:57;1.33;;;1.20;;
23402;SDS011;11874;48.228;11.684;2023-12-14T01:51:25;1.40;;;1.30;;
23402;SDS011;11874;48.228;11.684;2023-12-14T01:53:53;1.30;;;1.15;;
23402;SDS011;11874;48.228;11.684;2023-12-14T01:56:21;2.35;;;1.35;;
23402;SDS011;11874;48.228;11.684;2023-12-14T01:58:51;1.10;;;1.00;;
23402;SDS011;11874;48.228;11.684;2023-12-14T02:01:20;1.98;;;0.98;;
23402;SDS011;11874;48.228;11.684;2023-12-14T02:03:56;1.48;;;0.93;;
23402;SDS011;11874;48.228;11.684;2023-12-14T02:06:24;0.95;;;0.88;;
23402;SDS011;11874;48.228;11.684;2023-12-14T02:08:52;1.35;;;0.93;;
23402;SDS011;11874;48.228;11.684;2023-12-14T02:11:20;1.10;;;0.90;;
23402;SDS011;11874;48.228;11.684;2023-12-14T02:13:49;1.13;;;0.82;;
23402;SDS011;11874;48.228;11.684;2023-12-14T02:16:19;1.23;;;1.00;;
23402;SDS011;11874;48.228;11.684;2023-12-14T02:18:47;0.70;;;0.70;;
23402;SDS011;11874;48.228;11.684;2023-12-14T02:21:17;0.98;;;0.95;;
23402;SDS011;11874;48.228;11.684;2023-12-14T02:23:47;0.70;;;0.60;;
23402;SDS011;11874;48.228;11.684;2023-12-14T02:26:15;1.85;;;0.63;;
23402;SDS011;11874;48.228;11.684;2023-12-14T02:28:44;1.73;;;0.75;;
23402;SDS011;11874;48.228;11.684;2023-12-14T02:31:12;0.90;;;0.80;;
23402;SDS011;11874;48.228;11.684;2023-12-14T02:33:42;0.60;;;0.50;;
23402;SDS011;11874;48.228;11.684;2023-12-14T02:36:09;0.63;;;0.63;;
23402;SDS011;11874;48.228;11.684;2023-12-14T02:38:38;0.98;;;0.60;;
23402;SDS011;11874;48.228;11.684;2023-12-14T02:41:08;0.60;;;0.60;;
23402;SDS011;11874;48.228;11.684;2023-12-14T02:43:38;0.70;;;0.70;;
23402;SDS011;11874;48.228;11.684;2023-12-14T02:46:08;2.05;;;0.63;;
23402;SDS011;11874;48.228;11.684;2023-12-14T02:48:40;0.68;;;0.60;;
23402;SDS011;11874;48.228;11.684;2023-12-14T02:51:12;1.20;;;0.80;;
23402;SDS011;11874;48.228;11.684;2023-12-14T02:53:42;0.70;;;0.68;;
23402;SDS011;11874;48.228;11.684;2023-12-14T02:56:11;0.82;;;0.70;;
23402;SDS011;11874;48.228;11.684;2023-12-14T02:58:40;1.40;;;1.10;;
23402;SDS011;11874;48.228;11.684;2023-12-14T03:01:08;1.20;;;1.10;;
23402;SDS011;11874;48.228;11.684;2023-12-14T03:03:38;1.20;;;0.95;;
23402;SDS011;11874;48.228;11.684;2023-12-14T03:06:06;1.20;;;1.10;;
23402;SDS011;11874;48.228;11.684;2023-12-14T03:08:35;0.90;;;0.88;;
23402;SDS011;11874;48.228;11.684;2023-12-14T03:11:03;1.48;;;1.08;;
23402;SDS011;11874;48.228;11.684;2023-12-14T03:13:33;1.50;;;1.20;;
23402;SDS011;11874;48.228;11.684;2023-12-14T03:16:01;1.85;;;1.48;;
23402;SDS011;11874;48.228;11.684;2023-12-14T03:18:29;1.40;;;1.00;;
23402;SDS011;11874;48.228;11.684;2023-12-14T03:20:58;2.00;;;1.38;;
23402;SDS011;11874;48.228;11.684;2023-12-14T03:23:26;2.28;;;1.60;;
23402;SDS011;11874;48.228;11.684;2023-12-14T03:25:56;1.42;;;1.33;;
23402;SDS011;11874;48.228;11.684;2023-12-14T03:28:24;2.10;;;1.70;;
23402;SDS011;11874;48.228;11.684;2023-12-14T03:30:53;2.65;;;2.05;;
23402;SDS011;11874;48.228;11.684;2023-12-14T03:33:22;2.20;;;2.00;;
23402;SDS011;11874;48.228;11.684;2023-12-14T03:35:50;2.80;;;2.10;;
23402;SDS011;11874;48.228;11.684;2023-12-14T03:38:18;2.20;;;1.73;;
23402;SDS011;11874;48.228;11.684;2023-12-14T03:40:46;2.08;;;1.75;;
23402;SDS011;11874;48.228;11.684;2023-12-14T03:43:14;2.20;;;1.90;;
23402;SDS011;11874;48.228;11.684;2023-12-14T03:45:42;2.35;;;1.85;;
23402;SDS011;11874;48.228;11.684;2023-12-14T03:48:12;2.80;;;2.22;;
23402;SDS011;11874;48.228;11.684;2023-12-14T03:50:41;3.42;;;2.08;;
23402;SDS011;11874;48.228;11.684;2023-12-14T03:53:09;3.10;;;2.40;;
23402;SDS011;11874;48.228;11.684;2023-12-14T03:55:38;4.43;;;2.40;;
23402;SDS011;11874;48.228;11.684;2023-12-14T03:58:06;3.40;;;2.60;;
23402;SDS011;11874;48.228;11.684;2023-12-14T04:00:35;6.07;;;2.80;;
23402;SDS011;11874;48.228;11.684;2023-12-14T04:03:03;3.47;;;2.53;;
23402;SDS011;11874;48.228;11.684;2023-12-14T04:05:35;4.07;;;3.00;;
23402;SDS011;11874;48.228;11.684;2023-12-14T04:08:03;3.40;;;2.85;;
23402;SDS011;11874;48.228;11.684;2023-12-14T04:10:32;3.72;;;2.92;;
23402;SDS011;11874;48.228;11.684;2023-12-14T04:13:01;3.65;;;2.97;;
23402;SDS011;11874;48.228;11.684;2023-12-14T04:15:29;3.88;;;3.08;;
23402;SDS011;11874;48.228;11.684;2023-12-14T04:17:57;5.80;;;3.35;;
23402;SDS011;11874;48.228;11.684;2023-12-14T04:20:26;5.35;;;3.15;;
23402;SDS011;11874;48.228;11.684;2023-12-14T04:22:55;4.63;;;3.75;;
23402;SDS011;11874;48.228;11.684;2023-12-14T04:25:23;4.55;;;3.70;;
23402;SDS011;11874;48.228;11.684;2023-12-14T04:27:52;4.97;;;3.60;;
23402;SDS011;11874;48.228;11.684;2023-12-14T04:30:20;4.00;;;3.22;;
23402;SDS011;11874;48.228;11.684;2023-12-14T04:32:49;6.13;;;3.65;;
23402;SDS011;11874;48.228;11.684;2023-12-14T04:35:18;5.13;;;3.63;;
23402;SDS011;11874;48.228;11.684;2023-12-14T04:37:48;4.45;;;3.10;;
23402;SDS011;11874;48.228;11.684;2023-12-14T04:40:18;3.97;;;2.97;;
23402;SDS011;11874;48.228;11.684;2023-12-14T04:42:47;3.55;;;2.90;;
23402;SDS011;11874;48.228;11.684;2023-12-14T04:45:15;3.63;;;2.50;;
23402;SDS011;11874;48.228;11.684;2023-12-14T04:47:43;6.05;;;2.80;;
23402;SDS011;11874;48.228;11.684;2023-12-14T04:50:11;4.40;;;3.15;;
23402;SDS011;11874;48.228;11.684;2023-12-14T04:52:40;3.42;;;2.60;;
23402;SDS011;11874;48.228;11.684;2023-12-14T04:55:09;2.80;;;2.28;;
23402;SDS011;11874;48.228;11.684;2023-12-14T04:57:38;2.70;;;2.00;;
23402;SDS011;11874;48.228;11.684;2023-12-14T05:00:07;4.13;;;2.38;;
23402;SDS011;11874;48.228;11.684;2023-12-14T05:02:35;3.45;;;2.50;;
23402;SDS011;11874;48.228;11.684;2023-12-14T05:05:04;2.50;;;1.98;;
23402;SDS011;11874;48.228;11.684;2023-12-14T05:07:32;2.55;;;2.03;;
23402;SDS011;11874;48.228;11.684;2023-12-14T05:10:03;1.95;;;1.75;;
23402;SDS011;11874;48.228;11.684;2023-12-14T05:12:31;2.45;;;1.80;;
23402;SDS011;11874;48.228;11.684;2023-12-14T05:15:01;2.17;;;1.67;;
23402;SDS011;11874;48.228;11.684;2023-12-14T05:17:30;2.55;;;1.85;;
23402;SDS011;11874;48.228;11.684;2023-12-14T05:20:00;1.73;;;1.55;;
23402;SDS011;11874;48.228;11.684;2023-12-14T05:22:28;3.10;;;1.60;;
23402;SDS011;11874;48.228;11.684;2023-12-14T05:24:57;2.25;;;1.50;;
23402;SDS011;11874;48.228;11.684;2023-12-14T05:27:25;3.75;;;1.73;;
23402;SDS011;11874;48.228;11.684;2023-12-14T05:29:53;2.67;;;1.80;;
23402;SDS011;11874;48.228;11.684;2023-12-14T05:32:23;4.95;;;1.80;;
23402;SDS011;11874;48.228;11.684;2023-12-14T05:34:51;2.13;;;1.63;;
23402;SDS011;11874;48.228;11.684;2023-12-14T05:37:19;2.22;;;1.55;;
23402;SDS011;11874;48.228;11.684;2023-12-14T05:39:47;2.22;;;1.95;;
23402;SDS011;11874;48.228;11.684;2023-12-14T05:42:16;2.13;;;1.90;;
23402;SDS011;11874;48.228;11.684;2023-12-14T05:44:44;3.10;;;2.20;;
23402;SDS011;11874;48.228;11.684;2023-12-14T05:47:12;4.32;;;1.38;;
23402;SDS011;11874;48.228;11.684;2023-12-14T05:49:42;2.88;;;1.90;;
23402;SDS011;11874;48.228;11.684;2023-12-14T05:52:10;3.17;;;2.10;;
23402;SDS011;11874;48.228;11.684;2023-12-14T05:54:39;2.50;;;2.30;;
23402;SDS011;11874;48.228;11.684;2023-12-14T05:57:07;2.38;;;2.05;;
23402;SDS011;11874;48.228;11.684;2023-12-14T05:59:35;2.00;;;1.80;;
23402;SDS011;11874;48.228;11.684;2023-12-14T06:02:04;2.85;;;2.00;;
23402;SDS011;11874;48.228;11.684;2023-12-14T06:04:33;3.05;;;1.98;;
23402;SDS011;11874;48.228;11.684;2023-12-14T06:07:02;3.22;;;2.53;;
23402;SDS011;11874;48.228;11.684;2023-12-14T06:09:31;2.80;;;2.28;;
23402;SDS011;11874;48.228;11.684;2023-12-14T06:12:00;2.67;;;2.10;;
23402;SDS011;11874;48.228;11.684;2023-12-14T06:14:31;3.58;;;2.72;;
23402;SDS011;11874;48.228;11.684;2023-12-14T06:16:59;3.10;;;2.50;;
23402;SDS011;11874;48.228;11.684;2023-12-14T06:19:27;4.50;;;2.55;;
23402;SDS011;11874;48.228;11.684;2023-12-14T06:21:55;3.72;;;2.95;;
23402;SDS011;11874;48.228;11.684;2023-12-14T06:24:25;4.55;;;2.90;;
23402;SDS011;11874;48.228;11.684;2023-12-14T06:26:53;4.68;;;2.60;;
23402;SDS011;11874;48.228;11.684;2023-12-14T06:29:21;3.67;;;2.72;;
23402;SDS011;11874;48.228;11.684;2023-12-14T06:31:49;4.25;;;2.55;;
23402;SDS011;11874;48.228;11.684;2023-12-14T06:34:18;4.28;;;2.75;;
23402;SDS011;11874;48.228;11.684;2023-12-14T06:36:46;2.60;;;2.35;;
23402;SDS011;11874;48.228;11.684;2023-12-14T06:39:14;3.70;;;2.97;;
23402;SDS011;11874;48.228;11.684;2023-12-14T06:41:47;3.53;;;2.63;;
23402;SDS011;11874;48.228;11.684;2023-12-14T06:44:15;3.60;;;2.72;;
23402;SDS011;11874;48.228;11.684;2023-12-14T06:46:44;3.15;;;2.45;;
23402;SDS011;11874;48.228;11.684;2023-12-14T06:49:12;3.95;;;2.58;;
23402;SDS011;11874;48.228;11.684;2023-12-14T06:51:40;5.18;;;2.80;;
23402;SDS011;11874;48.228;11.684;2023-12-14T06:54:08;4.25;;;2.83;;
23402;SDS011;11874;48.228;11.684;2023-12-14T06:56:36;7.05;;;2.92;;
23402;SDS011;11874;48.228;11.684;2023-12-14T06:59:05;4.88;;;2.80;;
23402;SDS011;11874;48.228;11.684;2023-12-14T07:01:34;3.47;;;2.70;;
23402;SDS011;11874;48.228;11.684;2023-12-14T07:04:03;5.25;;;2.72;;
23402;SDS011;11874;48.228;11.684;2023-12-14T07:06:31;3.92;;;2.90;;
23402;SDS011;11874;48.228;11.684;2023-12-14T07:09:01;3.50;;;2.20;;
23402;SDS011;11874;48.228;11.684;2023-12-14T07:11:29;3.28;;;2.50;;
23402;SDS011;11874;48.228;11.684;2023-12-14T07:13:58;3.88;;;2.53;;
23402;SDS011;11874;48.228;11.684;2023-12-14T07:16:27;3.80;;;2.40;;
23402;SDS011;11874;48.228;11.684;2023-12-14T07:18:56;3.00;;;2.22;;
23402;SDS011;11874;48.228;11.684;2023-12-14T07:21:24;3.20;;;2.55;;
23402;SDS011;11874;48.228;11.684;2023-12-14T07:23:53;3.13;;;2.25;;
23402;SDS011;11874;48.228;11.684;2023-12-14T07:26:21;4.75;;;2.20;;
23402;SDS011;11874;48.228;11.684;2023-12-14T07:28:49;3.78;;;2.45;;
23402;SDS011;11874;48.228;11.684;2023-12-14T07:31:20;2.97;;;2.25;;
23402;SDS011;11874;48.228;11.684;2023-12-14T07:33:50;3.50;;;2.53;;
23402;SDS011;11874;48.228;11.684;2023-12-14T07:36:18;7.82;;;2.50;;
23402;SDS011;11874;48.228;11.684;2023-12-14T07:38:48;3.58;;;2.35;;
23402;SDS011;11874;48.228;11.684;2023-12-14T07:41:20;4.90;;;2.55;;
23402;SDS011;11874;48.228;11.684;2023-12-14T07:43:53;4.60;;;2.55;;
23402;SDS011;11874;48.228;11.684;2023-12-14T07:46:21;3.13;;;2.58;;
23402;SDS011;11874;48.228;11.684;2023-12-14T07:48:51;3.47;;;2.47;;
23402;SDS011;11874;48.228;11.684;2023-12-14T07:51:19;2.88;;;2.38;;
23402;SDS011;11874;48.228;11.684;2023-12-14T07:53:47;4.53;;;2.38;;
23402;SDS011;11874;48.228;11.684;2023-12-14T07:56:16;3.55;;;2.40;;
23402;SDS011;11874;48.228;11.684;2023-12-14T07:58:44;3.55;;;2.22;;
23402;SDS011;11874;48.228;11.684;2023-12-14T08:01:13;3.72;;;2.35;;
23402;SDS011;11874;48.228;11.684;2023-12-14T08:03:41;3.15;;;2.30;;
23402;SDS011;11874;48.228;11.684;2023-12-14T08:06:11;3.72;;;2.50;;
23402;SDS011;11874;48.228;11.684;2023-12-14T08:08:41;2.97;;;2.25;;
23402;SDS011;11874;48.228;11.684;2023-12-14T08:11:10;3.88;;;2.65;;
23402;SDS011;11874;48.228;11.684;2023-12-14T08:13:38;3.42;;;2.67;;
23402;SDS011;11874;48.228;11.684;2023-12-14T08:16:08;3.70;;;2.80;;
23402;SDS011;11874;48.228;11.684;2023-12-14T08:18:37;4.07;;;2.58;;
23402;SDS011;11874;48.228;11.684;2023-12-14T08:21:07;4.30;;;2.50;;
23402;SDS011;11874;48.228;11.684;2023-12-14T08:23:39;3.20;;;1.93;;
23402;SDS011;11874;48.228;11.684;2023-12-14T08:26:07;4.38;;;2.35;;
23402;SDS011;11874;48.228;11.684;2023-12-14T08:28:36;4.70;;;3.08;;
23402;SDS011;11874;48.228;11.684;2023-12-14T08:31:06;3.60;;;2.40;;
23402;SDS011;11874;48.228;11.684;2023-12-14T08:33:37;5.93;;;3.20;;
23402;SDS011;11874;48.228;11.684;2023-12-14T08:36:08;3.85;;;2.60;;
23402;SDS011;11874;48.228;11.684;2023-12-14T08:38:36;4.15;;;3.30;;
23402;SDS011;11874;48.228;11.684;2023-12-14T08:41:05;4.88;;;3.20;;
23402;SDS011;11874;48.228;11.684;2023-12-14T08:43:34;5.25;;;3.30;;
23402;SDS011;11874;48.228;11.684;2023-12-14T08:46:02;3.88;;;2.90;;
23402;SDS011;11874;48.228;11.684;2023-12-14T08:48:30;4.10;;;2.88;;
23402;SDS011;11874;48.228;11.684;2023-12-14T08:50:59;4.75;;;3.10;;
23402;SDS011;11874;48.228;11.684;2023-12-14T08:53:27;4.30;;;3.40;;
23402;SDS011;11874;48.228;11.684;2023-12-14T08:55:56;4.93;;;3.25;;
23402;SDS011;11874;48.228;11.684;2023-12-14T08:58:26;4.25;;;2.92;;
23402;SDS011;11874;48.228;11.684;2023-12-14T09:00:54;6.95;;;3.03;;
23402;SDS011;11874;48.228;11.684;2023-12-14T09:03:22;3.90;;;3.00;;
23402;SDS011;11874;48.228;11.684;2023-12-14T09:05:53;4.10;;;2.97;;
23402;SDS011;11874;48.228;11.684;2023-12-14T09:08:21;4.55;;;3.30;;
23402;SDS011;11874;48.228;11.684;2023-12-14T09:10:49;6.40;;;3.67;;
23402;SDS011;11874;48.228;11.684;2023-12-14T09:13:17;6.50;;;3.33;;
23402;SDS011;11874;48.228;11.684;2023-12-14T09:15:50;6.20;;;3.38;;
23402;SDS011;11874;48.228;11.684;2023-12-14T09:18:20;6.05;;;3.20;;
23402;SDS011;11874;48.228;11.684;2023-12-14T09:20:49;6.03;;;3.15;;
23402;SDS011;11874;48.228;11.684;2023-12-14T09:23:17;3.67;;;2.65;;
23402;SDS011;11874;48.228;11.684;2023-12-14T09:25:46;4.78;;;3.28;;
23402;SDS011;11874;48.228;11.684;2023-12-14T09:28:14;4.28;;;3.20;;
23402;SDS011;11874;48.228;11.684;2023-12-14T09:30:45;6.60;;;3.10;;
23402;SDS011;11874;48.228;11.684;2023-12-14T09:33:14;6.50;;;2.88;;
23402;SDS011;11874;48.228;11.684;2023-12-14T09:35:43;3.70;;;2.47;;
23402;SDS011;11874;48.228;11.684;2023-12-14T09:38:11;2.85;;;2.30;;
23402;SDS011;11874;48.228;11.684;2023-12-14T09:40:42;3.20;;;2.00;;
23402;SDS011;11874;48.228;11.684;2023-12-14T09:43:11;2.92;;;2.42;;
23402;SDS011;11874;48.228;11.684;2023-12-14T09:45:40;3.45;;;2.63;;
23402;SDS011;11874;48.228;11.684;2023-12-14T09:48:11;3.33;;;2.00;;
23402;SDS011;11874;48.228;11.684;2023-12-14T09:50:42;2.80;;;2.05;;
23402;SDS011;11874;48.228;11.684;2023-12-14T09:53:11;2.95;;;2.05;;
23402;SDS011;11874;48.228;11.684;2023-12-14T09:55:40;2.90;;;1.65;;
23402;SDS011;11874;48.228;11.684;2023-12-14T09:58:08;2.80;;;2.30;;
23402;SDS011;11874;48.228;11.684;2023-12-14T10:00:37;3.78;;;1.95;;
23402;SDS011;11874;48.228;11.684;2023-12-14T10:03:17;3.88;;;1.80;;
23402;SDS011;11874;48.228;11.684;2023-12-14T10:05:50;2.63;;;2.30;;
23402;SDS011;11874;48.228;11.684;2023-12-14T10:08:20;2.42;;;1.65;;
23402;SDS011;11874;48.228;11.684;2023-12-14T10:10:49;2.30;;;1.63;;
23402;SDS011;11874;48.228;11.684;2023-12-14T10:13:20;3.08;;;1.50;;
23402;SDS011;11874;48.228;11.684;2023-12-14T10:15:49;2.47;;;1.58;;
23402;SDS011;11874;48.228;11.684;2023-12-14T10:18:21;1.95;;;1.55;;
23402;SDS011;11874;48.228;11.684;2023-12-14T10:20:52;2.80;;;1.77;;
23402;SDS011;11874;48.228;11.684;2023-12-14T10:23:20;1.40;;;1.10;;
23402;SDS011;11874;48.228;11.684;2023-12-14T10:25:48;1.60;;;1.42;;
23402;SDS011;11874;48.228;11.684;2023-12-14T10:28:16;2.03;;;1.50;;
23402;SDS011;11874;48.228;11.684;2023-12-14T10:30:44;3.40;;;1.65;;
23402;SDS011;11874;48.228;11.684;2023-12-14T10:33:13;2.30;;;1.60;;
23402;SDS011;11874;48.228;11.684;2023-12-14T10:35:44;1.60;;;1.40;;
23402;SDS011;11874;48.228;11.684;2023-12-14T10:38:16;3.22;;;1.60;;
23402;SDS011;11874;48.228;11.684;2023-12-14T10:40:45;1.52;;;1.30;;
23402;SDS011;11874;48.228;11.684;2023-12-14T10:43:15;2.65;;;1.60;;
23402;SDS011;11874;48.228;11.684;2023-12-14T10:46:04;2.75;;;2.40;;
23402;SDS011;11874;48.228;11.684;2023-12-14T10:48:34;3.05;;;2.13;;
23402;SDS011;11874;48.228;11.684;2023-12-14T10:51:03;2.45;;;2.10;;
23402;SDS011;11874;48.228;11.684;2023-12-14T10:53:34;2.22;;;1.75;;
23402;SDS011;11874;48.228;11.684;2023-12-14T10:56:03;2.95;;;2.05;;
23402;SDS011;11874;48.228;11.684;2023-12-14T10:58:45;2.10;;;1.88;;
23402;SDS011;11874;48.228;11.684;2023-12-14T11:01:15;3.15;;;1.80;;
23402;SDS011;11874;48.228;11.684;2023-12-14T11:03:44;2.03;;;1.45;;
23402;SDS011;11874;48.228;11.684;2023-12-14T11:06:20;1.63;;;1.30;;
23402;SDS011;11874;48.228;11.684;2023-12-14T11:08:58;3.08;;;1.30;;
23402;SDS011;11874;48.228;11.684;2023-12-14T11:11:27;1.30;;;1.20;;
23402;SDS011;11874;48.228;11.684;2023-12-14T11:13:56;1.90;;;1.50;;
23402;SDS011;11874;48.228;11.684;2023-12-14T11:16:26;2.72;;;1.90;;
23402;SDS011;11874;48.228;11.684;2023-12-14T11:19:23;2.30;;;1.70;;
23402;SDS011;11874;48.228;11.684;2023-12-14T11:21:59;3.17;;;2.08;;
23402;SDS011;11874;48.228;11.684;2023-12-14T11:24:52;2.72;;;2.38;;
23402;SDS011;11874;48.228;11.684;2023-12-14T11:27:25;4.30;;;2.80;;
23402;SDS011;11874;48.228;11.684;2023-12-14T11:29:56;3.47;;;2.75;;
23402;SDS011;11874;48.228;11.684;2023-12-14T11:32:24;4.13;;;3.47;;
23402;SDS011;11874;48.228;11.684;2023-12-14T11:34:55;4.20;;;2.83;;
23402;SDS011;11874;48.228;11.684;2023-12-14T11:37:23;2.70;;;2.50;;
23402;SDS011;11874;48.228;11.684;2023-12-14T11:39:53;4.25;;;2.63;;
23402;SDS011;11874;48.228;11.684;2023-12-14T11:42:21;3.28;;;2.10;;
23402;SDS011;11874;48.228;11.684;2023-12-14T11:44:52;3.17;;;2.28;;
23402;SDS011;11874;48.228;11.684;2023-12-14T11:47:20;5.10;;;2.47;;
23402;SDS011;11874;48.228;11.684;2023-12-14T11:49:48;3.88;;;2.50;;
23402;SDS011;11874;48.228;11.684;2023-12-14T11:52:17;2.88;;;2.50;;
23402;SDS011;11874;48.228;11.684;2023-12-14T11:54:46;4.30;;;2.72;;
23402;SDS011;11874;48.228;11.684;2023-12-14T11:57:17;4.20;;;2.78;;
23402;SDS011;11874;48.228;11.684;2023-12-14T11:59:45;4.65;;;2.88;;
23402;SDS011;11874;48.228;11.684;2023-12-14T12:02:22;4.78;;;2.78;;
23402;SDS011;11874;48.228;11.684;2023-12-14T12:04:51;7.20;;;4.53;;
23402;SDS011;11874;48.228;11.684;2023-12-14T12:07:20;5.10;;;3.47;;
23402;SDS011;11874;48.228;11.684;2023-12-14T12:09:49;4.82;;;3.40;;
23402;SDS011;11874;48.228;11.684;2023-12-14T12:12:18;4.88;;;2.80;;
23402;SDS011;11874;48.228;11.684;2023-12-14T12:14:46;7.03;;;3.83;;
23402;SDS011;11874;48.228;11.684;2023-12-14T12:17:15;12.15;;;6.35;;
23402;SDS011;11874;48.228;11.684;2023-12-14T12:19:45;5.18;;;3.17;;
23402;SDS011;11874;48.228;11.684;2023-12-14T12:22:13;4.32;;;2.80;;
23402;SDS011;11874;48.228;11.684;2023-12-14T12:24:42;6.18;;;4.50;;
23402;SDS011;11874;48.228;11.684;2023-12-14T12:27:10;4.20;;;2.78;;
23402;SDS011;11874;48.228;11.684;2023-12-14T12:29:40;4.15;;;2.30;;
23402;SDS011;11874;48.228;11.684;2023-12-14T12:32:08;4.30;;;2.72;;
23402;SDS011;11874;48.228;11.684;2023-12-14T12:34:36;7.68;;;4.10;;
23402;SDS011;11874;48.228;11.684;2023-12-14T12:37:04;11.30;;;5.15;;
23402;SDS011;11874;48.228;11.684;2023-12-14T12:39:32;12.38;;;6.15;;
23402;SDS011;11874;48.228;11.684;2023-12-14T12:42:00;6.55;;;3.88;;
23402;SDS011;11874;48.228;11.684;2023-12-14T12:44:28;5.75;;;4.00;;
23402;SDS011;11874;48.228;11.684;2023-12-14T12:46:58;4.35;;;2.40;;
23402;SDS011;11874;48.228;11.684;2023-12-14T12:49:36;4.97;;;2.35;;
23402;SDS011;11874;48.228;11.684;2023-12-14T12:52:05;3.20;;;2.00;;
23402;SDS011;11874;48.228;11.684;2023-12-14T12:54:34;4.55;;;2.40;;
23402;SDS011;11874;48.228;11.684;2023-12-14T12:57:02;3.15;;;2.40;;
23402;SDS011;11874;48.228;11.684;2023-12-14T12:59:30;3.00;;;1.98;;
23402;SDS011;11874;48.228;11.684;2023-12-14T13:02:01;3.38;;;2.00;;
23402;SDS011;11874;48.228;11.684;2023-12-14T13:04:30;3.08;;;1.92;;
23402;SDS011;11874;48.228;11.684;2023-12-14T13:06:58;2.28;;;1.80;;
23402;SDS011;11874;48.228;11.684;2023-12-14T13:09:28;2.55;;;2.00;;
23402;SDS011;11874;48.228;11.684;2023-12-14T13:11:56;2.05;;;1.77;;
23402;SDS011;11874;48.228;11.684;2023-12-14T13:14:24;2.05;;;1.60;;
23402;SDS011;11874;48.228;11.684;2023-12-14T13:16:53;3.63;;;2.22;;
23402;SDS011;11874;48.228;11.684;2023-12-14T13:19:22;2.65;;;1.98;;
23402;SDS011;11874;48.228;11.684;2023-12-14T13:21:50;2.47;;;2.08;;
23402;SDS011;11874;48.228;11.684;2023-12-14T13:24:18;2.88;;;1.70;;
23402;SDS011;11874;48.228;11.684;2023-12-14T13:26:47;4.43;;;2.10;;
23402;SDS011;11874;48.228;11.684;2023-12-14T13:29:14;2.45;;;1.98;;
23402;SDS011;11874;48.228;11.684;2023-12-14T13:31:43;3.97;;;1.90;;
23402;SDS011;11874;48.228;11.684;2023-12-14T13:34:11;3.22;;;2.15;;
23402;SDS011;11874;48.228;11.684;2023-12-14T13:36:40;4.38;;;1.75;;
23402;SDS011;11874;48.228;11.684;2023-12-14T13:39:08;2.42;;;1.95;;
23402;SDS011;11874;48.228;11.684;2023-12-14T13:41:38;3.95;;;2.63;;
23402;SDS011;11874;48.228;11.684;2023-12-14T13:44:16;2.08;;;1.50;;
23402;SDS011;11874;48.228;11.684;2023-12-14T13:46:44;3.85;;;2.00;;
23402;SDS011;11874;48.228;11.684;2023-12-14T13:49:12;4.22;;;2.40;;
23402;SDS011;11874;48.228;11.684;2023-12-14T13:51:42;5.25;;;2.53;;
23402;SDS011;11874;48.228;11.684;2023-12-14T13:54:10;2.60;;;2.15;;
23402;SDS011;11874;48.228;11.684;2023-12-14T13:56:39;3.05;;;2.30;;
23402;SDS011;11874;48.228;11.684;2023-12-14T13:59:07;3.70;;;2.20;;
23402;SDS011;11874;48.228;11.684;2023-12-14T14:01:35;2.38;;;2.03;;
23402;SDS011;11874;48.228;11.684;2023-12-14T14:04:04;2.25;;;2.05;;
23402;SDS011;11874;48.228;11.684;2023-12-14T14:06:32;2.97;;;2.10;;
23402;SDS011;11874;48.228;11.684;2023-12-14T14:09:02;3.83;;;1.95;;
23402;SDS011;11874;48.228;11.684;2023-12-14T14:11:30;4.53;;;2.55;;
23402;SDS011;11874;48.228;11.684;2023-12-14T14:13:58;6.60;;;2.53;;
23402;SDS011;11874;48.228;11.684;2023-12-14T14:16:26;2.63;;;1.80;;
23402;SDS011;11874;48.228;11.684;2023-12-14T14:18:53;2.47;;;1.80;;
23402;SDS011;11874;48.228;11.684;2023-12-14T14:21:22;3.35;;;2.03;;
23402;SDS011;11874;48.228;11.684;2023-12-14T14:23:52;4.20;;;2.30;;
23402;SDS011;11874;48.228;11.684;2023-12-14T14:26:22;2.92;;;1.90;;
23402;SDS011;11874;48.228;11.684;2023-12-14T14:28:50;4.28;;;1.95;;
23402;SDS011;11874;48.228;11.684;2023-12-14T14:31:21;2.13;;;1.75;;
23402;SDS011;11874;48.228;11.684;2023-12-14T14:33:49;2.55;;;1.75;;
23402;SDS011;11874;48.228;11.684;2023-12-14T14:36:18;2.55;;;1.70;;
23402;SDS011;11874;48.228;11.684;2023-12-14T14:38:45;3.88;;;2.30;;
23402;SDS011;11874;48.228;11.684;2023-12-14T14:41:13;2.28;;;1.63;;
23402;SDS011;11874;48.228;11.684;2023-12-14T14:43:43;2.67;;;2.05;;